Pagrindinis puslapis
METAR-TAF:

METAR-TAF

Oro uostai :

Jelivarė, Švedija

platuma: 67-09N, ilguma: 020-39E, Aukštis: 359 m

Dabartinis oras

Ataskaita buvo paskelbta 11 minutes, ne 05:50 UTC
Vėjas 11 kt iš Vakarų/Pietvakarių, svyruoja nuo Pietų/Pietvakarių ir Vakarų/Šiaurės Vakarų
Temperatūra 16°C
Drėgmė 59%
Slėgis 1003 hPa
Matomumas 10 km arba daugiau
nėra debesų žemiau 1500 m ir nėra kamuolinių lietaus debesų

METAR: ESNG 110550Z 24011KT 210V290 CAVOK 16/08 Q1003

Laikas: 08:01 (06:01 UTC)

Prognozė

Ataskaita buvo paskelbta 31 minutes, ne 05:30 UTC
Prognozė galioja nuo 11 metu 06 UTC su 11 metu 15 UTC
Vėjas 15 kt iš Pietvakarių su gūsio iki 28 kt
Matomumas 10 km arba daugiau
nėra debesų žemiau 1500 m ir nėra kamuolinių lietaus debesų

TAF: ESNG 110530Z 1106/1115 23015G28KT CAVOK

Orai ataskaitas ir orų prognozės (METAR, TAF).

turimą stotys yra geltonos ir raudonos taškus žemėlapyje.

Perkelti pele per norėdami pamatyti stoties vardą.

Tada spustelėkite, norėdami matyti oro stebėjimo ir prognozės.

Norėdami pakeisti žemėlapį: spustelėkite ant žalios mygtukų su juodo kryžiaus žemyn,; žalią mygtuką su brūkšneliu, jei norite nutolinti; arba žalių rodyklių gretimoms žemėlapius.


METAR-TAF: